createdAt,value
2023-05-23T00:02:15.517Z,92.60
2023-05-23T00:04:43.058Z,92.50
2023-05-23T00:07:10.340Z,92.60
2023-05-23T00:09:37.203Z,92.60
2023-05-23T00:12:04.398Z,92.60
2023-05-23T00:14:33.872Z,92.60
2023-05-23T00:17:03.765Z,92.60
2023-05-23T00:19:30.661Z,92.60
2023-05-23T00:21:58.653Z,92.50
2023-05-23T00:24:25.834Z,92.50
2023-05-23T00:26:52.704Z,92.50
2023-05-23T00:29:19.714Z,92.50
2023-05-23T00:31:47.254Z,92.50
2023-05-23T00:34:17.954Z,92.60
2023-05-23T00:36:47.626Z,92.50
2023-05-23T00:39:19.544Z,92.50
2023-05-23T00:41:52.245Z,92.60
2023-05-23T00:44:21.204Z,92.50
2023-05-23T00:46:53.712Z,92.60
2023-05-23T00:49:21.227Z,92.50
2023-05-23T00:51:49.761Z,92.50
2023-05-23T00:54:21.066Z,92.60
2023-05-23T00:56:48.753Z,92.60
2023-05-23T00:59:16.517Z,92.60
2023-05-23T01:01:46.662Z,92.60
2023-05-23T01:04:14.401Z,92.60
2023-05-23T01:06:41.250Z,92.60
2023-05-23T01:09:09.606Z,92.60
2023-05-23T01:12:04.760Z,92.60
2023-05-23T01:14:51.155Z,92.70
2023-05-23T01:17:33.535Z,92.70
2023-05-23T01:20:09.095Z,92.70
2023-05-23T01:22:55.340Z,92.70
2023-05-23T01:25:31.310Z,92.70
2023-05-23T01:28:03.207Z,92.70
2023-05-23T01:30:33.035Z,92.70
2023-05-23T01:33:01.502Z,92.70
2023-05-23T01:35:28.522Z,92.70
2023-05-23T01:37:56.256Z,92.70
2023-05-23T01:40:24.854Z,92.60
2023-05-23T01:42:52.472Z,92.60
2023-05-23T01:45:20.460Z,92.60
2023-05-23T01:47:50.251Z,92.60
2023-05-23T01:50:17.830Z,92.60
2023-05-23T01:52:46.282Z,92.60
2023-05-23T01:55:15.754Z,92.60
2023-05-23T01:57:43.916Z,92.60
2023-05-23T02:00:12.185Z,92.60
2023-05-23T02:02:39.283Z,92.60
2023-05-23T02:05:06.572Z,92.60
2023-05-23T02:07:35.955Z,92.60
2023-05-23T02:10:04.450Z,92.50
2023-05-23T02:12:31.161Z,92.50
2023-05-23T02:14:58.159Z,92.50
2023-05-23T02:17:25.017Z,92.50
2023-05-23T02:19:51.962Z,92.50
2023-05-23T02:22:22.688Z,92.50
2023-05-23T02:24:50.229Z,92.50
2023-05-23T02:27:17.256Z,92.50
2023-05-23T02:29:44.058Z,92.50
2023-05-23T02:32:10.806Z,92.50
2023-05-23T02:34:38.264Z,92.50
2023-05-23T02:37:05.389Z,92.60
2023-05-23T02:39:32.209Z,92.60
2023-05-23T02:41:58.912Z,92.60
2023-05-23T02:44:25.727Z,92.70
2023-05-23T02:46:52.522Z,92.70
2023-05-23T02:49:19.325Z,92.60
2023-05-23T02:51:46.032Z,92.70
2023-05-23T02:54:12.855Z,92.70
2023-05-23T02:56:39.659Z,92.70
2023-05-23T02:59:06.665Z,92.60
2023-05-23T03:01:33.712Z,92.60
2023-05-23T03:04:00.697Z,92.60
2023-05-23T03:06:27.644Z,92.60
2023-05-23T03:08:54.365Z,92.60
2023-05-23T03:11:22.715Z,92.50
2023-05-23T03:13:49.490Z,92.50
2023-05-23T03:16:16.390Z,92.50
2023-05-23T03:18:43.198Z,92.50
2023-05-23T03:21:09.950Z,92.50
2023-05-23T03:23:36.728Z,92.50
2023-05-23T03:26:03.982Z,92.50
2023-05-23T03:28:33.740Z,92.50
2023-05-23T03:31:00.750Z,92.40
2023-05-23T03:33:27.580Z,92.50
2023-05-23T03:35:54.420Z,92.50
2023-05-23T03:38:21.236Z,92.50
2023-05-23T03:40:47.956Z,92.50
2023-05-23T03:43:14.705Z,92.60
2023-05-23T03:45:41.747Z,92.60
2023-05-23T03:48:08.790Z,92.60
2023-05-23T03:50:35.565Z,92.60
2023-05-23T03:53:02.383Z,92.60
2023-05-23T03:55:31.876Z,92.70
2023-05-23T03:57:58.986Z,92.80
2023-05-23T04:00:26.293Z,92.80
2023-05-23T04:02:53.141Z,92.90
2023-05-23T04:05:19.883Z,92.90
2023-05-23T04:07:46.697Z,93.00
2023-05-23T04:10:13.477Z,93.00
2023-05-23T04:12:41.775Z,93.00
2023-05-23T04:15:09.146Z,93.10
2023-05-23T04:17:38.919Z,93.10
2023-05-23T04:20:10.056Z,93.10
2023-05-23T04:22:37.170Z,93.10
2023-05-23T04:25:04.464Z,93.10
2023-05-23T04:27:31.517Z,93.20
2023-05-23T04:30:00.524Z,93.20
2023-05-23T04:32:27.651Z,93.20
2023-05-23T04:34:54.520Z,93.20
2023-05-23T04:37:22.239Z,93.20
2023-05-23T04:39:49.061Z,93.20
2023-05-23T04:42:15.975Z,93.20
2023-05-23T04:44:43.005Z,93.20
2023-05-23T04:47:10.062Z,93.20
2023-05-23T04:49:37.863Z,93.20
2023-05-23T04:52:04.769Z,93.20
2023-05-23T04:54:31.593Z,93.20
2023-05-23T04:56:58.679Z,93.20
2023-05-23T04:59:25.678Z,93.30
2023-05-23T05:01:52.519Z,93.30
2023-05-23T05:04:19.653Z,93.30
2023-05-23T05:06:48.574Z,93.30
2023-05-23T05:09:15.408Z,93.30
2023-05-23T05:11:42.181Z,93.30
2023-05-23T05:14:08.957Z,93.30
2023-05-23T05:16:36.355Z,93.30
2023-05-23T05:19:03.619Z,93.30
2023-05-23T05:21:31.422Z,93.30
2023-05-23T05:23:59.855Z,93.30
2023-05-23T05:26:26.967Z,93.30
2023-05-23T05:28:53.858Z,93.20
2023-05-23T05:31:21.003Z,93.20
2023-05-23T05:33:47.847Z,93.20
2023-05-23T05:36:14.639Z,93.20
2023-05-23T05:38:41.438Z,93.30
2023-05-23T05:41:09.278Z,93.30
2023-05-23T05:43:36.447Z,93.30
2023-05-23T05:46:03.435Z,93.30
2023-05-23T05:48:30.277Z,93.30
2023-05-23T05:50:57.092Z,93.30
2023-05-23T05:53:23.972Z,93.20
2023-05-23T05:55:50.984Z,93.20
2023-05-23T05:58:17.806Z,93.20
2023-05-23T06:00:45.298Z,93.20
2023-05-23T06:03:13.027Z,93.20
2023-05-23T06:05:39.931Z,93.20
2023-05-23T06:08:07.093Z,93.30
2023-05-23T06:10:34.255Z,93.30
2023-05-23T06:13:01.124Z,93.30
2023-05-23T06:15:27.922Z,93.30
2023-05-23T06:17:54.806Z,93.30
2023-05-23T06:20:22.032Z,93.30
2023-05-23T06:22:48.906Z,93.30
2023-05-23T06:25:15.804Z,93.30
2023-05-23T06:27:42.651Z,93.30
2023-05-23T06:30:09.899Z,93.30
2023-05-23T06:32:38.181Z,93.30
2023-05-23T06:35:05.620Z,93.30
2023-05-23T06:37:32.403Z,93.30
2023-05-23T06:39:59.185Z,93.30
2023-05-23T06:42:27.034Z,93.30
2023-05-23T06:44:53.815Z,93.30
2023-05-23T06:47:20.821Z,93.30
2023-05-23T06:49:47.661Z,93.30
2023-05-23T06:52:14.559Z,93.30
2023-05-23T06:54:41.893Z,93.30
2023-05-23T06:57:08.723Z,93.30
2023-05-23T06:59:35.521Z,93.30
2023-05-23T07:02:02.319Z,93.30
2023-05-23T07:04:29.059Z,93.40
2023-05-23T07:06:55.891Z,93.30
2023-05-23T07:09:22.766Z,93.40
2023-05-23T07:11:49.528Z,93.40
2023-05-23T07:14:16.350Z,93.30
2023-05-23T07:16:43.378Z,93.30
2023-05-23T07:19:10.353Z,93.30
2023-05-23T07:21:37.201Z,93.30
2023-05-23T07:24:04.151Z,93.30
2023-05-23T07:26:30.996Z,93.30
2023-05-23T07:28:58.202Z,93.30
2023-05-23T07:31:25.169Z,93.30
2023-05-23T07:33:55.913Z,93.30
2023-05-23T07:36:23.601Z,93.30
2023-05-23T07:38:50.402Z,93.30
2023-05-23T07:41:17.292Z,93.20
2023-05-23T07:43:44.095Z,93.30
2023-05-23T07:46:11.067Z,93.30
2023-05-23T07:48:37.962Z,93.30
2023-05-23T07:51:04.764Z,93.30
2023-05-23T07:53:31.501Z,93.30
2023-05-23T07:55:58.271Z,93.30
2023-05-23T07:58:25.074Z,93.40
2023-05-23T08:00:53.128Z,93.40
2023-05-23T08:03:20.647Z,93.40
2023-05-23T08:05:47.622Z,93.40
2023-05-23T08:08:14.497Z,93.40
2023-05-23T08:10:41.629Z,93.40
2023-05-23T08:13:10.364Z,93.50
2023-05-23T08:15:37.237Z,93.50
2023-05-23T08:18:05.214Z,93.50
2023-05-23T08:20:32.354Z,93.50
2023-05-23T08:23:00.356Z,93.40
2023-05-23T08:25:32.069Z,93.40
2023-05-23T08:27:59.685Z,93.40
2023-05-23T08:30:28.137Z,93.40
2023-05-23T08:32:57.977Z,93.30
2023-05-23T08:35:24.809Z,93.30
2023-05-23T08:37:52.398Z,93.30
2023-05-23T08:40:21.974Z,93.40
2023-05-23T08:42:49.840Z,93.60
2023-05-23T08:45:17.521Z,93.80
2023-05-23T08:47:45.931Z,94.10
2023-05-23T08:50:15.022Z,94.00
2023-05-23T08:52:56.248Z,94.00
2023-05-23T08:55:29.936Z,94.00
2023-05-23T08:58:01.883Z,93.90
2023-05-23T09:00:29.238Z,93.80
2023-05-23T09:02:57.133Z,93.70
2023-05-23T09:05:24.287Z,93.70
2023-05-23T09:07:51.865Z,93.30
2023-05-23T09:10:22.785Z,93.00
2023-05-23T09:12:50.077Z,92.90
2023-05-23T09:15:17.253Z,92.90
2023-05-23T09:17:45.418Z,92.70
2023-05-23T09:20:14.618Z,92.80
2023-05-23T09:22:45.860Z,92.60
2023-05-23T09:25:12.661Z,92.50
2023-05-23T09:27:39.531Z,91.90
2023-05-23T09:30:10.690Z,90.80
2023-05-23T09:32:37.567Z,86.80
2023-05-23T09:35:06.513Z,87.10
2023-05-23T09:37:43.353Z,75.40
2023-05-23T09:40:13.245Z,81.10
2023-05-23T09:42:44.244Z,60.70
2023-05-23T09:45:15.556Z,10.50
2023-05-23T09:47:52.903Z,8.50
2023-05-23T09:50:20.812Z,2.40
2023-05-23T09:52:48.120Z,1.00
2023-05-23T09:55:15.328Z,1.00
2023-05-23T09:57:43.513Z,62.40
2023-05-23T10:00:12.775Z,20.30
2023-05-23T10:03:06.612Z,74.50
2023-05-23T10:05:51.168Z,79.90
2023-05-23T10:08:27.240Z,92.90
2023-05-23T10:10:57.268Z,1.00
2023-05-23T10:13:28.528Z,89.80
2023-05-23T10:16:02.589Z,65.50
2023-05-23T10:18:38.613Z,90.40
2023-05-23T10:21:12.614Z,1.00
2023-05-23T10:23:40.899Z,1.00
2023-05-23T10:26:08.647Z,1.00
2023-05-23T10:28:35.676Z,5.10
2023-05-23T10:31:03.395Z,11.70
2023-05-23T10:33:36.651Z,21.20
2023-05-23T10:36:14.588Z,16.40
2023-05-23T10:38:58.066Z,1.00
2023-05-23T10:41:36.740Z,1.00
2023-05-23T10:44:28.710Z,1.00
2023-05-23T10:46:58.963Z,1.00
2023-05-23T10:49:41.962Z,86.90
2023-05-23T10:52:10.475Z,1.00
2023-05-23T10:54:45.295Z,85.90
2023-05-23T10:57:16.800Z,17.50
2023-05-23T10:59:45.019Z,1.00
2023-05-23T11:02:29.945Z,1.00
2023-05-23T11:05:20.694Z,1.00
2023-05-23T11:08:06.091Z,1.00
2023-05-23T11:10:32.937Z,13.00
2023-05-23T11:13:08.629Z,1.00
2023-05-23T11:15:45.830Z,55.50
2023-05-23T11:18:31.020Z,84.30
2023-05-23T11:20:59.824Z,1.00
2023-05-23T11:23:41.885Z,84.00
2023-05-23T11:26:32.249Z,75.90
2023-05-23T11:28:59.822Z,92.30
2023-05-23T11:31:27.161Z,2.50
2023-05-23T11:33:54.359Z,1.00
2023-05-23T11:36:24.373Z,1.00
2023-05-23T11:38:52.799Z,1.00
2023-05-23T11:41:19.856Z,76.80
2023-05-23T11:43:51.737Z,70.60
2023-05-23T11:46:18.806Z,1.00
2023-05-23T11:48:49.178Z,1.00
2023-05-23T11:51:17.390Z,94.40
2023-05-23T11:53:44.300Z,1.00
2023-05-23T11:56:11.163Z,79.60
2023-05-23T11:58:39.616Z,1.00
2023-05-23T12:01:08.302Z,73.20
2023-05-23T12:03:44.739Z,60.70
2023-05-23T12:06:13.420Z,21.60
2023-05-23T12:08:41.286Z,65.00
2023-05-23T12:11:08.368Z,69.50
2023-05-23T12:13:35.208Z,76.90
2023-05-23T12:16:03.192Z,64.80
2023-05-23T12:18:32.171Z,1.00
2023-05-23T12:21:08.092Z,70.20
2023-05-23T12:23:36.207Z,1.00
2023-05-23T12:26:07.407Z,22.00
2023-05-23T12:28:36.279Z,67.70
2023-05-23T12:31:21.249Z,93.80
2023-05-23T12:33:49.528Z,11.40
2023-05-23T12:36:23.181Z,74.80
2023-05-23T12:38:50.020Z,1.00
2023-05-23T12:41:19.926Z,1.00
2023-05-23T12:43:52.016Z,81.20
2023-05-23T12:46:19.827Z,1.00
2023-05-23T12:48:47.579Z,71.70
2023-05-23T12:51:15.019Z,92.90
2023-05-23T12:53:41.947Z,1.00
2023-05-23T12:56:08.994Z,46.20
2023-05-23T12:58:35.989Z,92.20
2023-05-23T13:01:03.465Z,1.00
2023-05-23T13:03:33.741Z,26.50
2023-05-23T13:06:00.723Z,73.70
2023-05-23T13:08:27.611Z,92.00
2023-05-23T13:10:54.574Z,76.30
2023-05-23T13:13:22.465Z,84.90
2023-05-23T13:15:51.097Z,1.00
2023-05-23T13:18:18.523Z,1.00
2023-05-23T13:20:46.653Z,70.30
2023-05-23T13:23:13.693Z,72.00
2023-05-23T13:25:40.741Z,90.10
2023-05-23T13:28:08.031Z,90.10
2023-05-23T13:30:34.928Z,92.10
2023-05-23T13:33:02.363Z,81.30
2023-05-23T13:35:29.136Z,91.40
2023-05-23T13:37:55.937Z,1.00
2023-05-23T13:40:23.180Z,51.10
2023-05-23T13:42:51.306Z,22.30
2023-05-23T13:45:19.264Z,67.70
2023-05-23T13:47:46.728Z,1.00
2023-05-23T13:50:13.673Z,1.00
2023-05-23T13:52:44.180Z,87.30
2023-05-23T13:55:12.826Z,1.00
2023-05-23T13:57:39.731Z,1.00
2023-05-23T14:00:08.862Z,92.60
2023-05-23T14:02:35.924Z,1.00
2023-05-23T14:05:03.132Z,1.00
2023-05-23T14:07:31.329Z,1.00
2023-05-23T14:09:59.652Z,1.00
2023-05-23T14:12:26.556Z,86.00
2023-05-23T14:14:53.391Z,61.60
2023-05-23T14:17:20.224Z,29.60
2023-05-23T14:19:47.409Z,1.00
2023-05-23T14:22:14.553Z,1.00
2023-05-23T14:24:41.379Z,23.20
2023-05-23T14:27:10.187Z,22.80
2023-05-23T14:29:37.993Z,28.90
2023-05-23T14:32:04.986Z,59.70
2023-05-23T14:34:32.085Z,1.00
2023-05-23T14:36:58.933Z,1.00
2023-05-23T14:39:25.809Z,1.00
2023-05-23T14:41:52.674Z,4.50
2023-05-23T14:44:19.676Z,91.50
2023-05-23T14:46:50.230Z,1.00
2023-05-23T14:49:17.880Z,27.30
2023-05-23T14:51:50.386Z,15.60
2023-05-23T14:54:18.670Z,43.90
2023-05-23T14:56:45.686Z,27.90
2023-05-23T14:59:12.551Z,1.00
2023-05-23T15:01:40.591Z,34.10
2023-05-23T15:04:09.416Z,1.00
2023-05-23T15:06:38.137Z,1.00
2023-05-23T15:09:05.358Z,93.30
2023-05-23T15:11:33.131Z,83.90
2023-05-23T15:13:59.908Z,4.30
2023-05-23T15:16:27.203Z,39.80
2023-05-23T15:18:54.101Z,35.90
2023-05-23T15:21:21.030Z,62.20
2023-05-23T15:23:47.884Z,82.00
2023-05-23T15:26:14.717Z,62.90
2023-05-23T15:28:41.602Z,79.20
2023-05-23T15:31:08.360Z,90.10
2023-05-23T15:33:35.149Z,1.00
2023-05-23T15:36:02.201Z,86.40
2023-05-23T15:38:29.128Z,85.60
2023-05-23T15:40:56.778Z,91.20
2023-05-23T15:43:25.088Z,76.60
2023-05-23T15:45:52.816Z,89.80
2023-05-23T15:48:19.824Z,71.30
2023-05-23T15:50:46.924Z,67.60
2023-05-23T15:53:13.759Z,93.10
2023-05-23T15:55:42.691Z,89.40
2023-05-23T15:58:10.695Z,1.00
2023-05-23T16:00:37.719Z,1.00
2023-05-23T16:03:04.645Z,1.00
2023-05-23T16:05:31.545Z,1.00
2023-05-23T16:07:58.382Z,1.00
2023-05-23T16:10:25.490Z,1.00
2023-05-23T16:12:52.313Z,1.00
2023-05-23T16:15:19.158Z,1.00
2023-05-23T16:17:46.127Z,1.00
2023-05-23T16:20:13.309Z,1.00
2023-05-23T16:22:41.358Z,1.00
2023-05-23T16:25:10.385Z,1.00
2023-05-23T16:27:37.469Z,1.00
2023-05-23T16:30:04.778Z,92.60
2023-05-23T16:32:31.638Z,1.00
2023-05-23T16:34:58.563Z,1.00
2023-05-23T16:37:25.440Z,1.00
2023-05-23T16:39:52.228Z,1.00
2023-05-23T16:42:19.024Z,1.00
2023-05-23T16:44:45.936Z,74.80
2023-05-23T16:47:12.733Z,83.00
2023-05-23T16:49:39.499Z,1.00
2023-05-23T16:52:06.326Z,67.40
2023-05-23T16:54:33.132Z,65.80
2023-05-23T16:57:01.773Z,65.60
2023-05-23T16:59:29.980Z,1.00
2023-05-23T17:01:57.175Z,1.00
2023-05-23T17:04:24.325Z,1.00
2023-05-23T17:06:51.445Z,83.10
2023-05-23T17:09:18.405Z,55.40
2023-05-23T17:11:46.338Z,1.00
2023-05-23T17:14:13.113Z,78.70
2023-05-23T17:16:40.407Z,24.30
2023-05-23T17:19:07.617Z,68.50
2023-05-23T17:21:34.597Z,57.90
2023-05-23T17:24:02.264Z,59.30
2023-05-23T17:26:29.078Z,1.00
2023-05-23T17:28:56.051Z,1.00
2023-05-23T17:31:22.876Z,1.00
2023-05-23T17:33:49.755Z,1.00
2023-05-23T17:36:16.592Z,1.00
2023-05-23T17:38:43.408Z,7.30
2023-05-23T17:41:10.263Z,1.00
2023-05-23T17:43:37.036Z,1.00
2023-05-23T17:46:03.907Z,19.10
2023-05-23T17:48:45.568Z,1.00
2023-05-23T17:51:13.579Z,1.00
2023-05-23T17:53:41.685Z,1.00
2023-05-23T17:56:09.488Z,1.00
2023-05-23T17:58:37.706Z,27.60
2023-05-23T18:01:05.865Z,70.50
2023-05-23T18:03:32.768Z,1.00
2023-05-23T18:05:59.610Z,1.00
2023-05-23T18:08:26.470Z,58.70
2023-05-23T18:10:53.328Z,67.70
2023-05-23T18:13:20.174Z,1.00
2023-05-23T18:15:46.937Z,1.00
2023-05-23T18:18:14.840Z,1.00
2023-05-23T18:20:41.927Z,45.20
2023-05-23T18:23:08.901Z,1.00
2023-05-23T18:25:35.701Z,1.00
2023-05-23T18:28:03.110Z,36.70
2023-05-23T18:30:30.044Z,1.00
2023-05-23T18:32:57.104Z,66.70
2023-05-23T18:35:25.688Z,1.00
2023-05-23T18:37:53.383Z,1.00
2023-05-23T18:40:21.819Z,78.10
2023-05-23T18:42:50.321Z,1.00
2023-05-23T18:45:17.150Z,85.90
2023-05-23T18:47:44.758Z,1.00
2023-05-23T18:50:13.021Z,74.80
2023-05-23T18:52:40.171Z,1.00
2023-05-23T18:55:07.710Z,1.00
2023-05-23T18:57:34.559Z,72.00
2023-05-23T19:00:03.272Z,58.10
2023-05-23T19:02:30.085Z,85.10
2023-05-23T19:04:56.889Z,88.20
2023-05-23T19:07:23.768Z,1.00
2023-05-23T19:09:50.862Z,1.00
2023-05-23T19:12:17.682Z,1.00
2023-05-23T19:14:44.431Z,1.00
2023-05-23T19:17:11.533Z,1.00
2023-05-23T19:19:38.436Z,1.00
2023-05-23T19:22:05.462Z,1.00
2023-05-23T19:24:32.347Z,1.00
2023-05-23T19:26:59.636Z,5.80
2023-05-23T19:29:26.724Z,61.00
2023-05-23T19:31:54.754Z,72.40
2023-05-23T19:34:22.118Z,75.20
2023-05-23T19:36:49.049Z,82.20
2023-05-23T19:39:15.969Z,86.70
2023-05-23T19:41:42.814Z,85.50
2023-05-23T19:44:09.770Z,82.70
2023-05-23T19:46:36.750Z,88.20
2023-05-23T19:49:03.866Z,92.20
2023-05-23T19:51:30.700Z,90.20
2023-05-23T19:53:57.642Z,84.10
2023-05-23T19:56:25.915Z,72.00
2023-05-23T19:58:52.711Z,70.00
2023-05-23T20:01:19.646Z,84.90
2023-05-23T20:03:46.758Z,87.40
2023-05-23T20:06:13.805Z,1.00
2023-05-23T20:08:40.650Z,90.90
2023-05-23T20:11:07.596Z,83.20
2023-05-23T20:13:34.455Z,71.50
2023-05-23T20:16:01.358Z,76.60
2023-05-23T20:18:28.174Z,65.90
2023-05-23T20:20:54.995Z,30.20
2023-05-23T20:23:21.893Z,68.60
2023-05-23T20:25:48.770Z,57.80
2023-05-23T20:28:15.822Z,27.70
2023-05-23T20:30:42.883Z,64.30
2023-05-23T20:33:09.939Z,63.60
2023-05-23T20:35:36.774Z,36.40
2023-05-23T20:38:03.931Z,61.40
2023-05-23T20:40:33.636Z,52.80
2023-05-23T20:43:04.685Z,72.00
2023-05-23T20:45:32.803Z,62.50
2023-05-23T20:48:00.150Z,65.10
2023-05-23T20:50:28.667Z,68.80
2023-05-23T20:52:55.455Z,68.40
2023-05-23T20:55:22.380Z,65.20
2023-05-23T20:57:49.206Z,69.50
2023-05-23T21:00:16.512Z,67.80
2023-05-23T21:02:43.809Z,78.60
2023-05-23T21:05:11.901Z,76.80
2023-05-23T21:07:39.144Z,86.80
2023-05-23T21:10:06.506Z,87.90
2023-05-23T21:12:33.296Z,85.50
2023-05-23T21:15:00.178Z,86.50
2023-05-23T21:17:27.097Z,1.00
2023-05-23T21:19:53.941Z,1.00
2023-05-23T21:22:20.880Z,1.00
2023-05-23T21:24:47.656Z,1.00
2023-05-23T21:27:14.411Z,92.10
2023-05-23T21:29:41.690Z,1.00
2023-05-23T21:32:08.509Z,92.30
2023-05-23T21:34:35.243Z,90.30
2023-05-23T21:37:02.044Z,86.10
2023-05-23T21:39:39.178Z,90.90
2023-05-23T21:42:10.068Z,1.00
2023-05-23T21:44:38.287Z,1.00
2023-05-23T21:47:07.215Z,1.00
2023-05-23T21:49:35.402Z,1.00
2023-05-23T21:52:02.838Z,1.00
2023-05-23T21:54:29.643Z,1.00
2023-05-23T21:56:56.865Z,1.00
2023-05-23T21:59:24.274Z,1.00
2023-05-23T22:01:51.316Z,1.00
2023-05-23T22:04:20.987Z,1.00
2023-05-23T22:06:47.803Z,1.00
2023-05-23T22:09:15.451Z,1.00
2023-05-23T22:11:43.195Z,1.00
2023-05-23T22:14:10.572Z,1.00
2023-05-23T22:16:40.851Z,1.00
2023-05-23T22:19:09.797Z,1.00
2023-05-23T22:21:36.989Z,1.00
2023-05-23T22:24:04.330Z,1.00
2023-05-23T22:26:31.216Z,1.00
2023-05-23T22:28:58.114Z,1.00
2023-05-23T22:31:25.026Z,1.00
2023-05-23T22:33:52.033Z,1.00
2023-05-23T22:36:18.777Z,1.00
2023-05-23T22:38:45.785Z,1.00
2023-05-23T22:41:12.725Z,1.00
2023-05-23T22:43:39.818Z,1.00
2023-05-23T22:46:07.306Z,1.00
2023-05-23T22:48:34.387Z,3.30
2023-05-23T22:51:05.853Z,4.80
2023-05-23T22:53:32.644Z,1.00
2023-05-23T22:55:59.482Z,13.10
2023-05-23T22:58:26.542Z,16.20
2023-05-23T23:00:53.396Z,17.40
2023-05-23T23:03:20.304Z,20.90
2023-05-23T23:05:47.160Z,28.10
2023-05-23T23:08:14.058Z,21.50
2023-05-23T23:10:41.768Z,26.40
2023-05-23T23:13:08.942Z,36.30
2023-05-23T23:15:36.809Z,35.50
2023-05-23T23:18:05.874Z,40.10
2023-05-23T23:20:33.079Z,42.40
2023-05-23T23:23:00.075Z,40.50
2023-05-23T23:25:26.923Z,42.70
2023-05-23T23:27:53.642Z,47.40
2023-05-23T23:30:20.621Z,52.50
2023-05-23T23:32:47.477Z,58.30
2023-05-23T23:35:14.389Z,61.60
2023-05-23T23:37:41.277Z,62.20
2023-05-23T23:40:08.793Z,61.50
2023-05-23T23:42:35.634Z,62.70
2023-05-23T23:45:02.746Z,63.80
2023-05-23T23:47:29.671Z,64.80
2023-05-23T23:49:56.457Z,65.00
2023-05-23T23:52:23.206Z,66.00
2023-05-23T23:54:49.984Z,67.90
2023-05-23T23:57:17.523Z,68.20
2023-05-23T23:59:44.346Z,69.30
